sensor_id;sensor_type;location;lat;lon;timestamp;temperature;humidity
8332;DHT22;4203;48.144;14.118;2024-02-26T00:00:35;0.10;99.90
8332;DHT22;4203;48.144;14.118;2024-02-26T00:03:02;0.20;99.90
8332;DHT22;4203;48.144;14.118;2024-02-26T00:05:29;0.30;99.90
8332;DHT22;4203;48.144;14.118;2024-02-26T00:07:57;0.30;99.90
8332;DHT22;4203;48.144;14.118;2024-02-26T00:10:24;0.30;99.90
8332;DHT22;4203;48.144;14.118;2024-02-26T00:12:52;0.30;99.90
8332;DHT22;4203;48.144;14.118;2024-02-26T00:15:20;0.30;99.90
8332;DHT22;4203;48.144;14.118;2024-02-26T00:17:47;0.30;99.90
8332;DHT22;4203;48.144;14.118;2024-02-26T00:20:14;0.30;99.90
8332;DHT22;4203;48.144;14.118;2024-02-26T00:22:42;0.30;99.90
8332;DHT22;4203;48.144;14.118;2024-02-26T00:25:09;0.30;99.90
8332;DHT22;4203;48.144;14.118;2024-02-26T00:27:38;0.20;99.90
8332;DHT22;4203;48.144;14.118;2024-02-26T00:30:10;0.20;99.90
8332;DHT22;4203;48.144;14.118;2024-02-26T00:32:37;0.10;99.90
8332;DHT22;4203;48.144;14.118;2024-02-26T00:35:05;0.10;99.90
8332;DHT22;4203;48.144;14.118;2024-02-26T00:37:33;0.10;99.90
8332;DHT22;4203;48.144;14.118;2024-02-26T00:40:01;0.10;99.90
8332;DHT22;4203;48.144;14.118;2024-02-26T00:42:28;0.10;99.90
8332;DHT22;4203;48.144;14.118;2024-02-26T00:44:56;0.10;99.90
8332;DHT22;4203;48.144;14.118;2024-02-26T00:47:24;0.10;99.90
8332;DHT22;4203;48.144;14.118;2024-02-26T00:49:51;0.10;99.90
8332;DHT22;4203;48.144;14.118;2024-02-26T00:52:19;0.10;99.90
8332;DHT22;4203;48.144;14.118;2024-02-26T00:54:46;0.10;99.90
8332;DHT22;4203;48.144;14.118;2024-02-26T00:57:13;0.10;99.90
8332;DHT22;4203;48.144;14.118;2024-02-26T00:59:40;0.00;99.90
8332;DHT22;4203;48.144;14.118;2024-02-26T01:02:07;0.00;99.90
8332;DHT22;4203;48.144;14.118;2024-02-26T01:04:36;0.00;99.90
8332;DHT22;4203;48.144;14.118;2024-02-26T01:07:03;0.00;99.90
8332;DHT22;4203;48.144;14.118;2024-02-26T01:09:31;-0.10;99.90
8332;DHT22;4203;48.144;14.118;2024-02-26T01:11:58;0.00;99.90
8332;DHT22;4203;48.144;14.118;2024-02-26T01:14:25;-0.10;99.90
8332;DHT22;4203;48.144;14.118;2024-02-26T01:16:53;-0.10;99.90
8332;DHT22;4203;48.144;14.118;2024-02-26T01:19:20;-0.20;99.90
8332;DHT22;4203;48.144;14.118;2024-02-26T01:21:49;-0.10;99.90
8332;DHT22;4203;48.144;14.118;2024-02-26T01:24:16;-0.20;99.90
8332;DHT22;4203;48.144;14.118;2024-02-26T01:26:44;-0.20;99.90
8332;DHT22;4203;48.144;14.118;2024-02-26T01:29:11;-0.20;99.90
8332;DHT22;4203;48.144;14.118;2024-02-26T01:31:39;-0.20;99.90
8332;DHT22;4203;48.144;14.118;2024-02-26T01:34:06;-0.30;99.90
8332;DHT22;4203;48.144;14.118;2024-02-26T01:36:33;-0.20;99.90
8332;DHT22;4203;48.144;14.118;2024-02-26T01:39:03;-0.30;99.90
8332;DHT22;4203;48.144;14.118;2024-02-26T01:41:30;-0.30;99.90
8332;DHT22;4203;48.144;14.118;2024-02-26T01:43:57;-0.30;99.90
8332;DHT22;4203;48.144;14.118;2024-02-26T01:46:25;-0.30;99.90
8332;DHT22;4203;48.144;14.118;2024-02-26T01:48:53;-0.30;99.90
8332;DHT22;4203;48.144;14.118;2024-02-26T01:51:20;-0.30;99.90
8332;DHT22;4203;48.144;14.118;2024-02-26T01:53:47;-0.30;99.90
8332;DHT22;4203;48.144;14.118;2024-02-26T01:56:17;-0.20;99.90
8332;DHT22;4203;48.144;14.118;2024-02-26T01:58:45;-0.30;99.90
8332;DHT22;4203;48.144;14.118;2024-02-26T02:01:13;-0.30;99.90
8332;DHT22;4203;48.144;14.118;2024-02-26T02:03:42;-0.40;99.90
8332;DHT22;4203;48.144;14.118;2024-02-26T02:06:12;-0.30;99.90
8332;DHT22;4203;48.144;14.118;2024-02-26T02:08:39;-0.30;99.90
8332;DHT22;4203;48.144;14.118;2024-02-26T02:11:06;-0.40;99.90
8332;DHT22;4203;48.144;14.118;2024-02-26T02:13:37;-0.50;99.90
8332;DHT22;4203;48.144;14.118;2024-02-26T02:16:05;-0.50;99.90
8332;DHT22;4203;48.144;14.118;2024-02-26T02:18:32;-0.50;99.90
8332;DHT22;4203;48.144;14.118;2024-02-26T02:21:02;-0.60;99.90
8332;DHT22;4203;48.144;14.118;2024-02-26T02:23:29;-0.60;99.90
8332;DHT22;4203;48.144;14.118;2024-02-26T02:25:57;-0.60;99.90
8332;DHT22;4203;48.144;14.118;2024-02-26T02:28:25;-0.50;99.90
8332;DHT22;4203;48.144;14.118;2024-02-26T02:30:53;-0.50;99.90
8332;DHT22;4203;48.144;14.118;2024-02-26T02:33:20;-0.50;99.90
8332;DHT22;4203;48.144;14.118;2024-02-26T02:35:48;-0.60;99.90
8332;DHT22;4203;48.144;14.118;2024-02-26T02:38:19;-0.60;99.90
8332;DHT22;4203;48.144;14.118;2024-02-26T02:40:46;-0.60;99.90
8332;DHT22;4203;48.144;14.118;2024-02-26T02:43:14;-0.60;99.90
8332;DHT22;4203;48.144;14.118;2024-02-26T02:45:41;-0.60;99.90
8332;DHT22;4203;48.144;14.118;2024-02-26T02:48:08;-0.60;99.90
8332;DHT22;4203;48.144;14.118;2024-02-26T02:50:35;-0.60;99.90
8332;DHT22;4203;48.144;14.118;2024-02-26T02:53:03;-0.60;99.90
8332;DHT22;4203;48.144;14.118;2024-02-26T02:55:31;-0.60;99.90
8332;DHT22;4203;48.144;14.118;2024-02-26T02:57:59;-0.60;99.90
8332;DHT22;4203;48.144;14.118;2024-02-26T03:00:26;-0.50;99.90
8332;DHT22;4203;48.144;14.118;2024-02-26T03:02:53;-0.50;99.90
8332;DHT22;4203;48.144;14.118;2024-02-26T03:05:21;-0.50;99.90
8332;DHT22;4203;48.144;14.118;2024-02-26T03:07:48;-0.50;99.90
8332;DHT22;4203;48.144;14.118;2024-02-26T03:10:15;-0.50;99.90
8332;DHT22;4203;48.144;14.118;2024-02-26T03:12:44;-0.50;99.90
8332;DHT22;4203;48.144;14.118;2024-02-26T03:15:11;-0.50;99.90
8332;DHT22;4203;48.144;14.118;2024-02-26T03:17:38;-0.50;99.90
8332;DHT22;4203;48.144;14.118;2024-02-26T03:20:07;-0.60;99.90
8332;DHT22;4203;48.144;14.118;2024-02-26T03:22:35;-0.60;99.90
8332;DHT22;4203;48.144;14.118;2024-02-26T03:25:02;-0.70;99.90
8332;DHT22;4203;48.144;14.118;2024-02-26T03:27:29;-0.70;99.90
8332;DHT22;4203;48.144;14.118;2024-02-26T03:29:58;-0.70;99.90
8332;DHT22;4203;48.144;14.118;2024-02-26T03:32:25;-0.70;99.90
8332;DHT22;4203;48.144;14.118;2024-02-26T03:34:52;-0.70;99.90
8332;DHT22;4203;48.144;14.118;2024-02-26T03:37:21;-0.80;99.90
8332;DHT22;4203;48.144;14.118;2024-02-26T03:39:48;-0.80;99.90
8332;DHT22;4203;48.144;14.118;2024-02-26T03:42:16;-0.90;99.90
8332;DHT22;4203;48.144;14.118;2024-02-26T03:44:43;-0.90;99.90
8332;DHT22;4203;48.144;14.118;2024-02-26T03:47:11;-0.90;99.90
8332;DHT22;4203;48.144;14.118;2024-02-26T03:49:39;-0.90;99.90
8332;DHT22;4203;48.144;14.118;2024-02-26T03:52:06;-1.00;99.90
8332;DHT22;4203;48.144;14.118;2024-02-26T03:54:33;-1.10;99.90
8332;DHT22;4203;48.144;14.118;2024-02-26T03:57:00;-1.10;99.90
8332;DHT22;4203;48.144;14.118;2024-02-26T03:59:27;-1.10;99.90
8332;DHT22;4203;48.144;14.118;2024-02-26T04:01:54;-1.10;99.90
8332;DHT22;4203;48.144;14.118;2024-02-26T04:04:24;-1.10;99.90
8332;DHT22;4203;48.144;14.118;2024-02-26T04:06:51;-1.10;99.90
8332;DHT22;4203;48.144;14.118;2024-02-26T04:09:19;-1.10;99.90
8332;DHT22;4203;48.144;14.118;2024-02-26T04:11:46;-1.00;99.90
8332;DHT22;4203;48.144;14.118;2024-02-26T04:14:13;-0.90;99.90
8332;DHT22;4203;48.144;14.118;2024-02-26T04:16:40;-0.90;99.90
8332;DHT22;4203;48.144;14.118;2024-02-26T04:19:07;-0.90;99.90
8332;DHT22;4203;48.144;14.118;2024-02-26T04:21:36;-0.90;99.90
8332;DHT22;4203;48.144;14.118;2024-02-26T04:24:04;-0.90;99.90
8332;DHT22;4203;48.144;14.118;2024-02-26T04:26:31;-0.90;99.90
8332;DHT22;4203;48.144;14.118;2024-02-26T04:28:59;-0.90;99.90
8332;DHT22;4203;48.144;14.118;2024-02-26T04:31:26;-1.00;99.90
8332;DHT22;4203;48.144;14.118;2024-02-26T04:33:53;-1.10;99.90
8332;DHT22;4203;48.144;14.118;2024-02-26T04:36:20;-1.10;99.90
8332;DHT22;4203;48.144;14.118;2024-02-26T04:38:49;-1.10;99.90
8332;DHT22;4203;48.144;14.118;2024-02-26T04:41:16;-1.10;99.90
8332;DHT22;4203;48.144;14.118;2024-02-26T04:43:43;-1.20;99.90
8332;DHT22;4203;48.144;14.118;2024-02-26T04:46:10;-1.20;99.90
8332;DHT22;4203;48.144;14.118;2024-02-26T04:48:38;-1.20;99.90
8332;DHT22;4203;48.144;14.118;2024-02-26T04:51:07;-1.20;99.90
8332;DHT22;4203;48.144;14.118;2024-02-26T04:53:34;-1.20;99.90
8332;DHT22;4203;48.144;14.118;2024-02-26T04:56:03;-1.10;99.90
8332;DHT22;4203;48.144;14.118;2024-02-26T04:58:31;-1.10;99.90
8332;DHT22;4203;48.144;14.118;2024-02-26T05:00:58;-1.20;99.90
8332;DHT22;4203;48.144;14.118;2024-02-26T05:03:25;-1.20;99.90
8332;DHT22;4203;48.144;14.118;2024-02-26T05:05:52;-1.10;99.90
8332;DHT22;4203;48.144;14.118;2024-02-26T05:08:20;-1.00;99.90
8332;DHT22;4203;48.144;14.118;2024-02-26T05:10:47;-1.00;99.90
8332;DHT22;4203;48.144;14.118;2024-02-26T05:13:15;-1.00;99.90
8332;DHT22;4203;48.144;14.118;2024-02-26T05:15:43;-1.10;99.90
8332;DHT22;4203;48.144;14.118;2024-02-26T05:18:12;-1.10;99.90
8332;DHT22;4203;48.144;14.118;2024-02-26T05:20:39;-1.10;99.90
8332;DHT22;4203;48.144;14.118;2024-02-26T05:23:07;-1.20;99.90
8332;DHT22;4203;48.144;14.118;2024-02-26T05:25:34;-1.30;99.90
8332;DHT22;4203;48.144;14.118;2024-02-26T05:28:01;-1.20;99.90
8332;DHT22;4203;48.144;14.118;2024-02-26T05:30:30;-1.20;99.90
8332;DHT22;4203;48.144;14.118;2024-02-26T05:32:57;-1.30;99.90
8332;DHT22;4203;48.144;14.118;2024-02-26T05:35:25;-1.30;99.90
8332;DHT22;4203;48.144;14.118;2024-02-26T05:37:52;-1.20;99.90
8332;DHT22;4203;48.144;14.118;2024-02-26T05:40:20;-1.20;99.90
8332;DHT22;4203;48.144;14.118;2024-02-26T05:42:47;-1.10;99.90
8332;DHT22;4203;48.144;14.118;2024-02-26T05:45:15;-1.10;99.90
8332;DHT22;4203;48.144;14.118;2024-02-26T05:47:43;-1.10;99.90
8332;DHT22;4203;48.144;14.118;2024-02-26T05:50:11;-1.10;99.90
8332;DHT22;4203;48.144;14.118;2024-02-26T05:52:41;-1.10;99.90
8332;DHT22;4203;48.144;14.118;2024-02-26T05:55:08;-1.00;99.90
8332;DHT22;4203;48.144;14.118;2024-02-26T05:57:36;-1.00;99.90
8332;DHT22;4203;48.144;14.118;2024-02-26T06:00:04;-1.00;99.90
8332;DHT22;4203;48.144;14.118;2024-02-26T06:02:32;-1.00;99.90
8332;DHT22;4203;48.144;14.118;2024-02-26T06:05:00;-1.00;99.90
8332;DHT22;4203;48.144;14.118;2024-02-26T06:07:28;-1.00;99.90
8332;DHT22;4203;48.144;14.118;2024-02-26T06:09:55;-0.90;99.90
8332;DHT22;4203;48.144;14.118;2024-02-26T06:12:23;-0.90;99.90
8332;DHT22;4203;48.144;14.118;2024-02-26T06:14:50;-0.80;99.90
8332;DHT22;4203;48.144;14.118;2024-02-26T06:17:17;-0.90;99.90
8332;DHT22;4203;48.144;14.118;2024-02-26T06:19:44;-1.00;99.90
8332;DHT22;4203;48.144;14.118;2024-02-26T06:22:13;-1.10;99.90
8332;DHT22;4203;48.144;14.118;2024-02-26T06:24:40;-1.20;99.90
8332;DHT22;4203;48.144;14.118;2024-02-26T06:27:07;-1.40;99.90
8332;DHT22;4203;48.144;14.118;2024-02-26T06:29:34;-1.60;99.90
8332;DHT22;4203;48.144;14.118;2024-02-26T06:32:02;-1.60;99.90
8332;DHT22;4203;48.144;14.118;2024-02-26T06:34:29;-1.60;99.90
8332;DHT22;4203;48.144;14.118;2024-02-26T06:36:56;-1.60;99.90
8332;DHT22;4203;48.144;14.118;2024-02-26T06:39:25;-1.70;99.90
8332;DHT22;4203;48.144;14.118;2024-02-26T06:41:52;-1.70;99.90
8332;DHT22;4203;48.144;14.118;2024-02-26T06:44:25;-1.60;99.90
8332;DHT22;4203;48.144;14.118;2024-02-26T06:46:57;-1.50;99.90
8332;DHT22;4203;48.144;14.118;2024-02-26T06:49:25;-1.50;99.90
8332;DHT22;4203;48.144;14.118;2024-02-26T06:51:52;-1.40;99.90
8332;DHT22;4203;48.144;14.118;2024-02-26T06:54:19;-1.30;99.90
8332;DHT22;4203;48.144;14.118;2024-02-26T06:56:48;-1.20;99.90
8332;DHT22;4203;48.144;14.118;2024-02-26T06:59:15;-1.00;99.90
8332;DHT22;4203;48.144;14.118;2024-02-26T07:01:43;-0.90;99.90
8332;DHT22;4203;48.144;14.118;2024-02-26T07:04:10;-0.80;99.90
8332;DHT22;4203;48.144;14.118;2024-02-26T07:06:37;-0.80;99.90
8332;DHT22;4203;48.144;14.118;2024-02-26T07:09:05;-0.80;99.90
8332;DHT22;4203;48.144;14.118;2024-02-26T07:11:32;-0.80;99.90
8332;DHT22;4203;48.144;14.118;2024-02-26T07:14:01;-0.70;99.90
8332;DHT22;4203;48.144;14.118;2024-02-26T07:16:29;-0.60;99.90
8332;DHT22;4203;48.144;14.118;2024-02-26T07:18:56;-0.50;99.90
8332;DHT22;4203;48.144;14.118;2024-02-26T07:21:23;-0.30;99.90
8332;DHT22;4203;48.144;14.118;2024-02-26T07:23:50;-0.30;99.90
8332;DHT22;4203;48.144;14.118;2024-02-26T07:26:17;-0.20;99.90
8332;DHT22;4203;48.144;14.118;2024-02-26T07:28:45;-0.10;99.90
8332;DHT22;4203;48.144;14.118;2024-02-26T07:31:13;0.00;99.90
8332;DHT22;4203;48.144;14.118;2024-02-26T07:33:40;0.00;99.90
8332;DHT22;4203;48.144;14.118;2024-02-26T07:36:08;0.10;99.90
8332;DHT22;4203;48.144;14.118;2024-02-26T07:38:35;0.10;99.90
8332;DHT22;4203;48.144;14.118;2024-02-26T07:41:03;0.20;99.90
8332;DHT22;4203;48.144;14.118;2024-02-26T07:43:30;0.40;99.90
8332;DHT22;4203;48.144;14.118;2024-02-26T07:45:57;0.50;99.90
8332;DHT22;4203;48.144;14.118;2024-02-26T07:48:26;0.60;99.90
8332;DHT22;4203;48.144;14.118;2024-02-26T07:50:53;0.80;99.90
8332;DHT22;4203;48.144;14.118;2024-02-26T07:53:21;0.90;99.90
8332;DHT22;4203;48.144;14.118;2024-02-26T07:55:48;1.00;99.90
8332;DHT22;4203;48.144;14.118;2024-02-26T07:58:15;1.10;99.90
8332;DHT22;4203;48.144;14.118;2024-02-26T08:00:42;1.10;99.90
8332;DHT22;4203;48.144;14.118;2024-02-26T08:03:11;1.20;99.90
8332;DHT22;4203;48.144;14.118;2024-02-26T08:05:42;2.30;99.90
8332;DHT22;4203;48.144;14.118;2024-02-26T08:11:32;0.20;99.90
8332;DHT22;4203;48.144;14.118;2024-02-26T08:14:00;1.00;99.90
8332;DHT22;4203;48.144;14.118;2024-02-26T08:16:54;0.60;99.90
